Time Latitude Longitude Accuracy (66% radius in meters) Altitude (meters) Speed (km/hour) Bearing (degrees) Battery (%) GPS flag
07:32:10 57.204376 60.120989 0 0 0 0 1 delete
07:31:29 57.204371 60.121164 0 0 0 0 1 delete
07:29:52 57.204428 60.121035 0 0 0 0 1 delete
07:27:36 57.204519 60.121067 0 0 0 0 1 delete
07:27:03 57.204517 60.120855 0 0 0 0 1 delete
07:25:01 57.204590 60.120748 0 0 0 0 1 delete
07:23:57 57.204501 60.120724 0 0 0 0 1 delete
07:23:50 57.204431 60.120562 0 0 0 0 1 delete
07:23:45 57.204446 60.120380 0 0 0 0 1 delete
07:23:39 57.204452 60.120184 0 0 0 0 1 delete
07:23:34 57.204396 60.120017 0 0 0 0 1 delete
07:23:24 57.204379 60.119851 0 0 0 0 1 delete
07:23:17 57.204333 60.119708 0 0 0 0 1 delete
07:23:06 57.204286 60.119563 0 0 0 0 1 delete
07:22:59 57.204221 60.119381 0 0 0 0 1 delete
07:22:51 57.204178 60.119228 0 0 0 0 1 delete
07:22:44 57.204106 60.119105 0 0 0 0 1 delete
07:22:28 57.204028 60.118983 0 0 0 0 1 delete
07:22:17 57.203958 60.118874 0 0 0 0 1 delete
07:22:11 57.203877 60.118758 0 0 0 0 1 delete
07:22:05 57.203854 60.118584 0 0 0 0 1 delete
07:21:59 57.203886 60.118409 0 0 0 0 1 delete
07:21:32 57.203956 60.118293 0 0 0 0 1 delete
07:21:24 57.204039 60.118191 0 0 0 0 1 delete
07:21:20 57.204102 60.118055 0 0 0 0 1 delete
07:21:16 57.204152 60.117900 0 0 0 0 1 delete
07:21:13 57.204219 60.117788 0 0 0 0 1 delete
07:21:09 57.204301 60.117659 0 0 0 0 1 delete
07:21:05 57.204368 60.117534 0 0 0 0 1 delete
07:21:02 57.204451 60.117467 0 0 0 0 1 delete
07:20:59 57.204556 60.117428 0 0 0 0 1 delete
07:20:56 57.204663 60.117395 0 0 0 0 1 delete
07:20:53 57.204793 60.117417 0 0 0 0 1 delete
07:20:50 57.204910 60.117462 0 0 0 0 1 delete
07:20:47 57.205038 60.117523 0 0 0 0 1 delete
07:20:39 57.205154 60.117596 0 0 0 0 1 delete
07:20:35 57.205185 60.117425 0 0 0 0 1 delete
07:20:29 57.205215 60.117249 0 0 0 0 1 delete
07:20:26 57.205302 60.117183 0 0 0 0 1 delete
07:20:22 57.205411 60.117100 0 0 0 0 1 delete
07:20:19 57.205495 60.117013 0 0 0 0 1 delete
07:20:16 57.205613 60.116989 0 0 0 0 1 delete
07:20:14 57.205717 60.116964 0 0 0 0 1 delete
07:20:12 57.205853 60.116944 0 0 0 0 1 delete
07:20:10 57.205982 60.116943 0 0 0 0 1 delete
07:20:08 57.206096 60.116952 0 0 0 0 1 delete
07:20:06 57.206227 60.116981 0 0 0 0 1 delete
07:20:04 57.206341 60.117006 0 0 0 0 1 delete
07:20:02 57.206433 60.117005 0 0 0 0 1 delete
07:19:59 57.206557 60.117049 0 0 0 0 1 delete